Elmdale, New York
Current Conditions -  °F | °C
As of 10:58 PM on Saturday 25 Oct 2014 (Local Time) from KGTB Reporting Station
Scattered Clouds Scattered Clouds  
Wind Chill: 53°   Ceiling: Unl
Heat Index: 53°   Visibility: 10mi
Dew Point: 46°   Wind: 12mph
Humidity: 79%   Direction: 260°W
Pressure: 29.52"   Gusts: NA
Location:  44.3309°N, 75.4775°W
Report Text: KGTB 260258Z AUTO 26010KT 10SM SCT065 SCT085 11/08 A2952 RMK AO2 CIG 060 RWY03 SLP998 T01140079 57006
Loading
Personal Weather Stations






























Interactive Weather Map
Tropical Storm Tracking
New forecast layout! Learn more

10-Day Weather Forecast

Advertisements
Track Severe Weather on mobile